Time;durP1;ratioP1;P1;durP2;ratioP2;P2;SDS_P1;SDS_P2;PMS_P1;PMS_P2;Temp;Humidity;BMP_temperature;BMP_pressure;BME280_temperature;BME280_humidity;BME280_pressure;Samples;Min_cycle;Max_cycle;Signal;HPM_P1;HPM_P2
2022/06/18 00:01:38;;;;;;;7.20;5.57;;;;;;;;;;4920382;29;20059;-79
2022/06/18 00:04:08;;;;;;;12.73;5.50;;;;;;;;;;4912892;29;20524;-77
2022/06/18 00:06:59;;;;;;;6.45;4.90;;;;;;;;;;4914429;29;20179;-77
2022/06/18 00:09:34;;;;;;;9.98;5.25;;;;;;;;;;4914037;29;20841;-77
2022/06/18 00:15:16;;;;;;;9.90;4.93;;;;;;;;;;4903343;29;20074;-80
2022/06/18 00:17:42;;;;;;;9.38;4.65;;;;;;;;;;4912460;29;20082;-78
2022/06/18 00:20:10;;;;;;;6.20;4.82;;;;;;;;;;4894674;29;20052;-76
2022/06/18 00:22:36;;;;;;;9.48;5.15;;;;;;;;;;4898157;29;20517;-80
2022/06/18 00:25:04;;;;;;;9.13;4.88;;;;;;;;;;4914107;29;20036;-77
2022/06/18 00:27:30;;;;;;;8.98;5.40;;;;;;;;;;4909332;29;20048;-81
2022/06/18 00:29:56;;;;;;;9.07;5.00;;;;;;;;;;4911429;29;20067;-76
2022/06/18 00:32:22;;;;;;;9.48;5.35;;;;;;;;;;4908244;29;20040;-78
2022/06/18 00:34:48;;;;;;;8.25;5.60;;;;;;;;;;4910135;29;20059;-77
2022/06/18 00:37:19;;;;;;;13.30;5.03;;;;;;;;;;4910015;29;20044;-77
2022/06/18 00:39:47;;;;;;;9.15;5.60;;;;;;;;;;4911838;29;20056;-78
2022/06/18 00:42:25;;;;;;;11.15;5.32;;;;;;;;;;4894481;29;20048;-77
2022/06/18 00:44:54;;;;;;;7.70;5.38;;;;;;;;;;4881642;29;20110;-77
2022/06/18 00:47:32;;;;;;;9.95;5.80;;;;;;;;;;4904585;29;20618;-78
2022/06/18 00:50:01;;;;;;;7.47;5.32;;;;;;;;;;4885317;29;20051;-79
2022/06/18 00:52:28;;;;;;;12.10;5.53;;;;;;;;;;4910979;29;20456;-79
2022/06/18 00:55:16;;;;;;;11.27;5.80;;;;;;;;;;4911582;29;20052;-77
2022/06/18 00:57:42;;;;;;;11.77;5.82;;;;;;;;;;4893679;29;20059;-78
2022/06/18 01:00:12;;;;;;;11.82;5.82;;;;;;;;;;4919005;29;20123;-78
2022/06/18 01:02:40;;;;;;;8.35;5.90;;;;;;;;;;4891872;29;20103;-77
2022/06/18 01:05:18;;;;;;;10.90;6.85;;;;;;;;;;4904566;29;20044;-79
2022/06/18 01:07:45;;;;;;;9.80;6.57;;;;;;;;;;4894645;29;20040;-80
2022/06/18 01:10:18;;;;;;;10.10;7.15;;;;;;;;;;4895010;29;20622;-79
2022/06/18 01:12:44;;;;;;;9.35;6.70;;;;;;;;;;4910807;29;20096;-76
2022/06/18 01:15:12;;;;;;;10.00;6.78;;;;;;;;;;4892721;29;20054;-78
2022/06/18 01:17:39;;;;;;;10.48;7.50;;;;;;;;;;4893208;29;20092;-78
2022/06/18 01:20:08;;;;;;;12.15;8.43;;;;;;;;;;4905857;29;20043;-79
2022/06/18 01:22:34;;;;;;;12.40;7.63;;;;;;;;;;4893502;29;20051;-79
2022/06/18 01:25:00;;;;;;;9.85;8.13;;;;;;;;;;4893894;29;20147;-80
2022/06/18 01:27:27;;;;;;;8.80;7.90;;;;;;;;;;4893979;29;20067;-80
2022/06/18 01:29:53;;;;;;;10.77;7.45;;;;;;;;;;4909252;29;20044;-78
2022/06/18 01:32:20;;;;;;;8.68;7.38;;;19.10;99.90;;;;;;4902968;29;20040;-78
2022/06/18 01:34:46;;;;;;;10.93;8.32;;;;;;;;;;4905933;29;20048;-78
2022/06/18 01:37:14;;;;;;;11.70;7.50;;;;;;;;;;4897883;29;20048;-80
2022/06/18 01:39:42;;;;;;;12.20;7.32;;;;;;;;;;4928723;29;20556;-79
2022/06/18 01:42:12;;;;;;;16.38;8.02;;;;;;;;;;4914571;29;20074;-80
2022/06/18 01:44:38;;;;;;;9.70;7.70;;;;;;;;;;4910936;29;20101;-80
2022/06/18 01:47:10;;;;;;;11.50;9.00;;;;;;;;;;4910539;29;20060;-79
2022/06/18 01:49:42;;;;;;;10.77;8.25;;;;;;;;;;4910627;29;20051;-81
2022/06/18 01:52:09;;;;;;;11.75;8.65;;;;;;;;;;4912877;29;20184;-79
2022/06/18 01:54:39;;;;;;;11.48;8.50;;;;;;;;;;4918597;29;20051;-79
2022/06/18 01:57:10;;;;;;;13.18;7.90;;;;;;;;;;4924679;29;20044;-81
2022/06/18 01:59:42;;;;;;;10.57;7.70;;;;;;;;;;4924839;29;20048;-78
2022/06/18 02:02:08;;;;;;;11.00;8.38;;;;;;;;;;4923160;29;20036;-81
2022/06/18 02:04:34;;;;;;;13.00;8.00;;;;;;;;;;4914431;29;20386;-77
2022/06/18 02:07:01;;;;;;;9.88;8.23;;;;;;;;;;4912596;29;20131;-80
2022/06/18 02:09:36;;;;;;;12.27;8.63;;;18.80;99.90;;;;;;4892123;29;20036;-78
2022/06/18 02:12:04;;;;;;;14.27;8.52;;;;;;;;;;4901936;29;20047;-79
2022/06/18 02:14:31;;;;;;;9.50;8.15;;;;;;;;;;4877486;29;20079;-79
2022/06/18 02:16:58;;;;;;;11.70;8.77;;;;;;;;;;4893399;29;20055;-78
2022/06/18 02:19:24;;;;;;;14.50;8.55;;;;;;;;;;4893518;29;20727;-80
2022/06/18 02:21:52;;;;;;;11.57;8.80;;;;;;;;;;4909745;29;20130;-78
2022/06/18 02:24:19;;;;;;;13.52;9.45;;;;;;;;;;4910091;29;20059;-76
2022/06/18 02:26:46;;;;;;;9.60;8.60;;;;;;;;;;4892517;29;20074;-77
2022/06/18 02:29:20;;;;;;;12.18;8.85;;;;;;;;;;4910920;29;20048;-80
2022/06/18 02:31:46;;;;;;;12.18;9.27;;;;;;;;;;4888839;29;20061;-80
2022/06/18 02:34:18;;;;;;;13.57;9.88;;;;;;;;;;4900989;29;20067;-80
2022/06/18 02:36:44;;;;;;;13.00;9.52;;;;;;;;;;4892864;29;20562;-78
2022/06/18 02:39:30;;;;;;;11.20;10.05;;;;;;;;;;4909541;29;20107;-78
2022/06/18 02:42:06;;;;;;;15.52;10.38;;;;;;;;;;4893995;29;20040;-80
2022/06/18 02:44:32;;;;;;;13.75;10.38;;;;;;;;;;4892089;29;20087;-78
2022/06/18 02:47:00;;;;;;;20.48;10.68;;;;;;;;;;4914703;29;20123;-78
2022/06/18 02:49:27;;;;;;;13.32;10.95;;;;;;;;;;4886593;29;20047;-80
2022/06/18 02:51:53;;;;;;;15.68;11.80;;;;;;;;;;4910674;29;20050;-80
2022/06/18 02:54:19;;;;;;;14.05;11.93;;;;;;;;;;4893574;29;20051;-80
2022/06/18 02:56:47;;;;;;;17.77;11.73;;;;;;;;;;4910152;29;20528;-80
2022/06/18 02:59:13;;;;;;;17.90;12.50;;;;;;;;;;4911037;29;20040;-79
2022/06/18 03:01:39;;;;;;;14.43;11.98;;;;;;;;;;4902151;29;20504;-79
2022/06/18 03:04:05;;;;;;;16.60;12.80;;;;;;;;;;4910992;29;20040;-79
2022/06/18 03:06:33;;;;;;;22.85;13.15;;;;;;;;;;4891699;29;20619;-80
2022/06/18 03:08:59;;;;;;;18.60;14.05;;;;;;;;;;4910410;29;20051;-79
2022/06/18 03:14:13;;;;;;;26.98;14.52;;;;;;;;;;4896519;29;20408;-78
2022/06/18 03:16:40;;;;;;;16.60;14.80;;;;;;;;;;4896161;29;20462;-78
2022/06/18 03:19:06;;;;;;;20.00;14.63;;;;;;;;;;4889072;29;20048;-80
2022/06/18 03:21:32;;;;;;;18.23;15.45;;;;;;;;;;4896313;29;20528;-76
2022/06/18 03:23:59;;;;;;;26.48;15.55;;;;;;;;;;4912055;29;20412;-79
2022/06/18 03:26:25;;;;;;;20.45;14.68;;;;;;;;;;4904467;29;20052;-78
2022/06/18 03:28:51;;;;;;;22.05;15.00;;;;;;;;;;4912464;29;20067;-80
2022/06/18 03:31:18;;;;;;;20.38;15.38;;;;;;;;;;4879655;29;20484;-76
2022/06/18 03:33:46;;;;;;;24.60;15.50;;;;;;;;;;4911868;29;20055;-76
2022/06/18 03:36:13;;;;;;;22.55;15.77;;;;;;;;;;4912202;29;20055;-80
2022/06/18 03:38:39;;;;;;;25.25;16.70;;;;;;;;;;4912248;29;20048;-79
2022/06/18 03:41:08;;;;;;;23.70;16.45;;;;;;;;;;4895541;29;20139;-80
2022/06/18 03:43:34;;;;;;;23.60;18.80;;;;;;;;;;4895521;29;20096;-79
2022/06/18 03:46:02;;;;;;;27.63;17.42;;;;;;;;;;4924124;29;20423;-78
2022/06/18 03:48:32;;;;;;;26.25;18.20;;;;;;;;;;4911720;29;20048;-82
2022/06/18 03:50:58;;;;;;;28.23;17.02;;;;;;;;;;4898858;29;20463;-81
2022/06/18 03:53:24;;;;;;;24.00;18.27;;;;;;;;;;4923787;29;20080;-80
2022/06/18 03:55:51;;;;;;;26.33;19.15;;;;;;;;;;4913522;29;20123;-79
2022/06/18 03:58:17;;;;;;;28.38;19.13;;;;;;;;;;4913875;29;20036;-79
2022/06/18 04:00:50;;;;;;;27.13;19.30;;;;;;;;;;4894199;29;20111;-80
2022/06/18 04:03:16;;;;;;;27.63;19.95;;;;;;;;;;4895646;29;20059;-79
2022/06/18 04:05:42;;;;;;;29.80;19.95;;;;;;;;;;4911654;29;20373;-76
2022/06/18 04:08:10;;;;;;;33.08;19.45;;;;;;;;;;4896149;29;20127;-79
2022/06/18 04:10:36;;;;;;;29.60;19.88;;;;;;;;;;4876865;29;20045;-78
2022/06/18 04:13:02;;;;;;;28.95;19.67;;;;;;;;;;4912653;29;20092;-76
2022/06/18 04:15:28;;;;;;;30.33;20.98;;;;;;;;;;4910586;29;20571;-80
2022/06/18 04:17:55;;;;;;;32.70;21.25;;;;;;;;;;4895433;29;20048;-79
2022/06/18 04:20:32;;;;;;;36.17;20.60;;;;;;;;;;4885821;29;20066;-78
2022/06/18 04:22:58;;;;;;;34.65;20.55;;;;;;;;;;4881678;29;20173;-80
2022/06/18 04:25:24;;;;;;;38.28;22.75;;;;;;;;;;4911791;29;20056;-79
2022/06/18 04:27:51;;;;;;;34.22;22.65;;;;;;;;;;4893294;29;21027;-78
2022/06/18 04:30:18;;;;;;;33.55;22.85;;;;;;;;;;4910257;29;20147;-78
2022/06/18 04:32:44;;;;;;;39.97;23.27;;;;;;;;;;4893856;29;20480;-80
2022/06/18 04:35:11;;;;;;;38.35;21.45;;;;;;;;;;4894918;29;20099;-80
2022/06/18 04:37:38;;;;;;;34.40;21.38;;;;;;;;;;4894768;29;20096;-78
2022/06/18 04:40:04;;;;;;;34.45;21.40;;;;;;;;;;4911575;29;20075;-79
2022/06/18 04:42:30;;;;;;;34.97;22.50;;;;;;;;;;4884262;29;20046;-78
2022/06/18 04:44:56;;;;;;;34.70;23.00;;;;;;;;;;4915388;29;21249;-76
2022/06/18 04:47:22;;;;;;;28.17;21.05;;;;;;;;;;4895229;29;20044;-79
2022/06/18 04:49:50;;;;;;;37.90;22.55;;;;;;;;;;4893517;29;20055;-80
2022/06/18 04:52:16;;;;;;;31.25;21.70;;;;;;;;;;4901979;29;20051;-79
2022/06/18 04:54:42;;;;;;;35.10;22.42;;;;;;;;;;4912966;29;20040;-80
2022/06/18 04:57:09;;;;;;;36.97;21.33;;;;;;;;;;4910530;29;20044;-78
2022/06/18 04:59:35;;;;;;;33.60;22.13;;;;;;;;;;4893973;29;20036;-79
2022/06/18 05:02:06;;;;;;;39.90;22.65;;;;;;;;;;4910961;29;20047;-79
2022/06/18 05:04:32;;;;;;;35.10;23.50;;;;;;;;;;4894674;29;20106;-80
2022/06/18 05:06:58;;;;;;;37.95;23.55;;;;;;;;;;4910662;29;20103;-79
2022/06/18 05:09:24;;;;;;;29.25;22.35;;;;;;;;;;4895682;29;20055;-80
2022/06/18 05:11:50;;;;;;;46.65;24.55;;;;;;;;;;4899221;29;20046;-79
2022/06/18 05:14:16;;;;;;;38.47;22.80;;;;;;;;;;4907868;29;20048;-79
2022/06/18 05:16:43;;;;;;;26.75;21.85;;;;;;;;;;4909351;29;20131;-74
2022/06/18 05:19:26;;;;;;;40.95;22.30;;;;;;;;;;4905500;29;20051;-78
2022/06/18 05:21:52;;;;;;;31.63;20.53;;;;;;;;;;4920442;29;20063;-79
2022/06/18 05:24:19;;;;;;;37.92;20.85;;;;;;;;;;4899393;29;20765;-76
2022/06/18 05:26:46;;;;;;;34.20;21.20;;;;;;;;;;4895829;29;20539;-77
2022/06/18 05:29:12;;;;;;;34.80;19.83;;;;;;;;;;4893080;29;20107;-77
2022/06/18 05:31:38;;;;;;;35.70;20.33;;;;;;;;;;4894153;29;20096;-77
2022/06/18 05:34:04;;;;;;;31.55;19.05;;;;;;;;;;4893032;29;20389;-77
2022/06/18 05:36:30;;;;;;;30.98;19.95;;;;;;;;;;4893408;29;20123;-80
2022/06/18 05:38:57;;;;;;;48.33;20.23;;;;;;;;;;4912230;29;20032;-79
2022/06/18 05:41:23;;;;;;;35.53;19.13;;;;;;;;;;4890115;29;20493;-78
2022/06/18 05:43:50;;;;;;;28.35;17.20;;;;;;;;;;4909657;29;20051;-76
2022/06/18 05:46:16;;;;;;;28.42;16.48;;;;;;;;;;4909592;29;20044;-79
2022/06/18 05:48:43;;;;;;;31.83;16.05;;;;;;;;;;4888039;29;20075;-77
2022/06/18 05:51:09;;;;;;;25.73;14.80;;;;;;;;;;4908969;29;20099;-77
2022/06/18 05:53:35;;;;;;;32.53;14.90;;;;;;;;;;4920878;29;20039;-79
2022/06/18 05:56:01;;;;;;;29.23;15.35;;;;;;;;;;4910167;29;20056;-79
2022/06/18 05:58:28;;;;;;;24.85;14.55;;;;;;;;;;4893015;29;20032;-78
2022/06/18 06:00:54;;;;;;;27.42;14.07;;;;;;;;;;4910634;29;20032;-79
2022/06/18 06:03:20;;;;;;;25.65;14.00;;;;;;;;;;4891941;29;20127;-76
2022/06/18 06:05:46;;;;;;;22.45;13.13;;;;;;;;;;4911011;29;20044;-76
2022/06/18 06:08:14;;;;;;;28.35;13.43;;;;;;;;;;4893421;29;20063;-78
2022/06/18 06:13:27;;;;;;;22.42;12.65;;;;;;;;;;4912256;29;20076;-80
2022/06/18 06:15:53;;;;;;;21.08;11.27;;;;;;;;;;4910624;29;20071;-78
2022/06/18 06:18:21;;;;;;;24.50;10.93;;;;;;;;;;4894610;29;20437;-76
2022/06/18 06:20:48;;;;;;;22.88;10.77;;;;;;;;;;4896660;29;20126;-79
2022/06/18 06:23:14;;;;;;;19.92;9.65;;;;;;;;;;4911127;29;20091;-79
2022/06/18 06:25:41;;;;;;;21.17;9.80;;;;;;;;;;4892988;29;20518;-79
2022/06/18 06:28:10;;;;;;;19.25;9.18;;;;;;;;;;4894081;29;20048;-80
2022/06/18 06:30:38;;;;;;;19.00;10.05;;;;;;;;;;4895444;29;20448;-80
2022/06/18 06:33:04;;;;;;;14.50;8.88;;;;;;;;;;4894819;29;20056;-79
2022/06/18 06:35:30;;;;;;;18.35;9.45;;;;;;;;;;4910431;29;20741;-79
2022/06/18 06:37:56;;;;;;;20.30;9.77;;;;;;;;;;4910146;29;20040;-79
2022/06/18 06:40:24;;;;;;;27.13;9.70;;;;;;;;;;4908432;29;20119;-78
2022/06/18 06:42:51;;;;;;;27.27;10.63;;;;;;;;;;4908266;29;20541;-80
2022/06/18 06:45:20;;;;;;;27.52;12.15;;;;;;;;;;4900823;29;20185;-77
2022/06/18 06:47:46;;;;;;;25.35;10.13;;;;;;;;;;4917835;29;20060;-79
2022/06/18 06:50:13;;;;;;;18.42;9.63;;;;;;;;;;4895251;29;20044;-77
2022/06/18 06:52:40;;;;;;;19.60;8.50;;;;;;;;;;4908244;29;20044;-77
2022/06/18 06:57:51;;;;;;;22.10;8.30;;;;;;;;;;4914239;29;20040;-80
2022/06/18 07:00:19;;;;;;;16.95;8.23;;;;;;;;;;4896703;29;20510;-77
2022/06/18 07:02:45;;;;;;;17.17;8.38;;;;;;;;;;4879085;29;20044;-80
2022/06/18 07:05:13;;;;;;;18.70;8.23;;;;;;;;;;4919508;29;20056;-81
2022/06/18 07:07:39;;;;;;;14.13;6.93;;;;;;;;;;4913581;29;20103;-76
2022/06/18 07:10:06;;;;;;;13.65;6.03;;;;;;;;;;4899728;29;20413;-77
2022/06/18 07:12:32;;;;;;;13.15;5.88;;;;;;;;;;4883370;29;20603;-79
2022/06/18 07:15:00;;;;;;;18.85;5.93;;;;;;;;;;4897924;29;20039;-78
2022/06/18 07:17:28;;;;;;;22.65;6.25;;;;;;;;;;4895866;29;20047;-78
2022/06/18 07:19:54;;;;;;;18.13;6.85;;;;;;;;;;4895975;29;20047;-79
2022/06/18 07:22:20;;;;;;;14.48;5.93;;;;;;;;;;4913371;29;20131;-76
2022/06/18 07:24:46;;;;;;;8.48;4.68;;;;;;;;;;4913629;29;20044;-75
2022/06/18 07:27:12;;;;;;;27.80;16.73;;;;;;;;;;4913386;29;20493;-79
2022/06/18 07:29:38;;;;;;;11.02;4.53;;;;;;;;;;4913158;29;20052;-77
2022/06/18 07:32:09;;;;;;;13.23;5.47;;;;;;;;;;4914851;29;20060;-78
2022/06/18 07:34:35;;;;;;;17.67;6.10;;;;;;;;;;4904105;29;20040;-80
2022/06/18 07:37:01;;;;;;;12.85;5.25;;;;;;;;;;4881317;29;20135;-78
2022/06/18 07:39:27;;;;;;;16.33;6.22;;;;;;;;;;4913882;29;20835;-80
2022/06/18 07:41:54;;;;;;;10.80;5.30;;;;;;;;;;4896628;29;20111;-80
2022/06/18 07:44:20;;;;;;;15.35;5.40;;;;;;;;;;4914440;29;20117;-80
2022/06/18 07:46:51;;;;;;;14.30;5.55;;;;;;;;;;4917510;29;20055;-79
2022/06/18 07:49:17;;;;;;;12.80;5.68;;;;;;;;;;4895481;29;20532;-78
2022/06/18 07:51:44;;;;;;;11.60;5.60;;;;;;;;;;4915284;29;20103;-80
2022/06/18 07:54:12;;;;;;;14.75;4.80;;;;;;;;;;4916664;29;20048;-80
2022/06/18 07:56:38;;;;;;;7.25;3.97;;;;;;;;;;4913043;29;20036;-78
2022/06/18 07:59:04;;;;;;;12.98;4.50;;;;;;;;;;4913241;29;20072;-78
2022/06/18 08:01:32;;;;;;;10.98;4.60;;;;;;;;;;4913706;29;20055;-78
2022/06/18 08:03:58;;;;;;;13.07;4.00;;;;;;;;;;4895184;29;20397;-77
2022/06/18 08:06:25;;;;;;;10.20;4.07;;;;;;;;;;4912249;29;20158;-79
2022/06/18 08:08:52;;;;;;;10.50;4.20;;;;;;;;;;4893264;29;20048;-78
2022/06/18 08:11:19;;;;;;;11.43;4.20;;;;;;;;;;4888080;29;20433;-77
2022/06/18 08:13:46;;;;;;;12.40;5.65;;;;;;;;;;4908515;29;20545;-80
2022/06/18 08:16:13;;;;;;;10.52;4.80;;;21.80;99.90;;;;;;4889906;29;20080;-80
2022/06/18 08:18:40;;;;;;;13.48;5.22;;;;;;;;;;4895756;29;20048;-80
2022/06/18 08:21:08;;;;;;;10.63;4.97;;;;;;;;;;4911768;29;20500;-81
2022/06/18 08:23:35;;;;;;;11.65;5.47;;;;;;;;;;4910862;29;20397;-79
2022/06/18 08:26:01;;;;;;;13.77;5.75;;;;;;;;;;4912447;29;20645;-80
2022/06/18 08:28:27;;;;;;;8.65;4.32;;;;;;;;;;4912998;29;20059;-81
2022/06/18 08:30:53;;;;;;;10.60;4.95;;;;;;;;;;4902516;29;20579;-78
2022/06/18 08:33:19;;;;;;;8.68;4.20;;;;;;;;;;4916309;29;20060;-79
2022/06/18 08:35:51;;;;;;;9.45;4.07;;;;;;;;;;4881783;29;20048;-78
2022/06/18 08:38:17;;;;;;;12.68;3.50;;;;;;;;;;4918349;29;20092;-81
2022/06/18 08:40:56;;;;;;;8.55;3.13;;;;;;;;;;4924755;29;20072;-81
2022/06/18 08:43:43;;;;;;;6.68;2.42;;;;;;;;;;4882844;29;20052;-77
2022/06/18 08:46:25;;;;;;;5.05;1.95;;;;;;;;;;4902242;29;20040;-80
2022/06/18 08:49:10;;;;;;;3.00;1.40;;;;;;;;;;4897488;29;20591;-78
2022/06/18 08:51:41;;;;;;;2.88;1.50;;;;;;;;;;4898886;29;20049;-76
2022/06/18 08:54:19;;;;;;;2.42;1.30;;;;;;;;;;4908037;29;20162;-78
2022/06/18 08:56:45;;;;;;;3.10;1.23;;;;;;;;;;4883772;29;20183;-76
2022/06/18 08:59:17;;;;;;;1.42;1.08;;;;;;;;;;4903029;29;20052;-79
2022/06/18 09:01:46;;;;;;;1.10;1.00;;;;;;;;;;4897018;29;20048;-77
2022/06/18 09:04:31;;;;;;;2.53;1.20;;;;;;;;;;4892401;29;20040;-78
2022/06/18 09:07:21;;;;;;;2.70;0.95;;;;;;;;;;4888303;29;20106;-78
2022/06/18 09:09:50;;;;;;;2.92;1.17;;;;;;;;;;4909242;29;20048;-80
2022/06/18 09:12:19;;;;;;;3.00;1.27;;;;;;;;;;4910356;29;20090;-78
2022/06/18 09:14:50;;;;;;;4.28;1.70;;;;;;;;;;4900189;29;20054;-77
2022/06/18 09:17:19;;;;;;;2.38;1.20;;;;;;;;;;4891695;29;20719;-76
2022/06/18 09:19:46;;;;;;;2.65;1.20;;;;;;;;;;4905466;29;20401;-78
2022/06/18 09:22:16;;;;;;;3.95;1.33;;;;;;;;;;4893530;29;20099;-78
2022/06/18 09:24:43;;;;;;;4.03;1.80;;;;;;;;;;4893751;29;20040;-79
2022/06/18 09:27:32;;;;;;;5.07;2.03;;;;;;;;;;4891874;29;20113;-77
2022/06/18 09:30:04;;;;;;;5.90;1.95;;;;;;;;;;4909261;29;20423;-76
2022/06/18 09:32:35;;;;;;;4.70;1.80;;;;;;;;;;4909640;29;20084;-78
2022/06/18 09:35:12;;;;;;;4.38;2.25;;;;;;;;;;4909314;29;20052;-77
2022/06/18 09:37:53;;;;;;;3.08;1.77;;;;;;;;;;4904059;29;20092;-77
2022/06/18 09:40:28;;;;;;;2.80;1.50;;;;;;;;;;4880059;29;20096;-76
2022/06/18 09:42:58;;;;;;;5.95;1.80;;;;;;;;;;4909471;29;20505;-77
2022/06/18 09:45:33;;;;;;;7.05;2.05;;;;;;;;;;4892261;29;20381;-76
2022/06/18 09:48:01;;;;;;;7.35;1.80;;;;;;;;;;4910313;29;20048;-79
2022/06/18 09:50:33;;;;;;;4.35;1.70;;;;;;;;;;4892002;29;20127;-78
2022/06/18 09:53:18;;;;;;;5.70;1.67;;;;;;;;;;4881487;29;20060;-76
2022/06/18 09:55:47;;;;;;;4.18;2.08;;;;;;;;;;4893591;29;20071;-76
2022/06/18 09:58:15;;;;;;;6.68;1.60;;;;;;;;;;4909614;29;20454;-78
2022/06/18 10:00:42;;;;;;;4.35;1.40;;;;;;;;;;4909593;29;20076;-80
2022/06/18 10:03:14;;;;;;;4.57;1.52;;;;;;;;;;4908941;29;20052;-80
2022/06/18 10:08:31;;;;;;;4.50;1.25;;;;;;;;;;4892695;29;20163;-79
2022/06/18 10:11:07;;;;;;;3.30;1.10;;;;;;;;;;4891598;29;20036;-80
2022/06/18 10:13:35;;;;;;;5.07;1.55;;;;;;;;;;4909132;29;20523;-81
2022/06/18 10:16:05;;;;;;;4.45;1.40;;;23.10;99.90;;;;;;4908743;29;20055;-80
2022/06/18 10:19:01;;;;;;;4.25;1.45;;;;;;;;;;4908109;29;20040;-78
2022/06/18 10:21:34;;;;;;;1.98;1.30;;;;;;;;;;4870387;29;20999;-81
2022/06/18 10:24:36;;;;;;;6.97;1.63;;;;;;;;;;4911722;29;20056;-77
2022/06/18 10:27:10;;;;;;;5.80;1.63;;;;;;;;;;4836498;29;20042;-80
2022/06/18 10:29:44;;;;;;;2.95;1.27;;;;;;;;;;4850906;29;1098916;-80
2022/06/18 10:32:19;;;;;;;2.33;0.90;;;;;;;;;;4913345;29;20481;-81
2022/06/18 10:34:58;;;;;;;2.45;0.95;;;;;;;;;;4896930;29;20052;-79
2022/06/18 10:37:28;;;;;;;1.90;0.93;;;;;;;;;;4884970;29;20044;-77
2022/06/18 10:39:57;;;;;;;2.15;0.77;;;;;;;;;;4896126;29;20056;-81
2022/06/18 10:42:35;;;;;;;2.83;0.88;;;;;;;;;;4896457;29;20054;-80
2022/06/18 10:45:07;;;;;;;1.70;0.80;;;;;;;;;;4901209;29;20063;-78
2022/06/18 10:47:40;;;;;;;0.98;0.73;;;;;;;;;;4918644;29;20055;-78
2022/06/18 10:50:08;;;;;;;3.60;0.82;;;;;;;;;;4912726;29;20146;-79
2022/06/18 10:52:36;;;;;;;5.15;1.15;;;;;;;;;;4894525;29;20131;-76
2022/06/18 10:55:28;;;;;;;4.10;1.15;;;;;;;;;;4913434;29;20048;-80
2022/06/18 10:57:54;;;;;;;3.92;0.98;;;;;;;;;;4892766;29;20064;-79
2022/06/18 11:00:25;;;;;;;4.40;1.25;;;;;;;;;;4904180;29;20032;-79
2022/06/18 11:02:56;;;;;;;4.13;1.35;;;;;;;;;;4912564;29;20556;-78
2022/06/18 11:05:24;;;;;;;4.38;0.90;;;;;;;;;;4903049;29;20040;-80
2022/06/18 11:07:51;;;;;;;4.20;1.27;;;;;;;;;;4893679;29;20052;-81
2022/06/18 11:10:37;;;;;;;5.65;1.75;;;;;;;;;;4910928;29;20087;-81
2022/06/18 11:13:05;;;;;;;3.97;1.42;;;;;;;;;;4912143;29;20066;-82
2022/06/18 11:15:34;;;;;;;3.13;1.30;;;;;;;;;;4895305;29;20055;-83
2022/06/18 11:18:02;;;;;;;8.77;1.55;;;;;;;;;;4896513;29;20088;-80
2022/06/18 11:20:30;;;;;;;6.10;1.50;;;;;;;;;;4911508;29;20075;-84
2022/06/18 11:22:56;;;;;;;7.22;1.50;;;;;;;;;;4911240;29;20039;-78
2022/06/18 11:25:24;;;;;;;3.75;1.20;;;;;;;;;;4912462;29;20088;-80
2022/06/18 11:27:52;;;;;;;4.15;1.20;;;;;;;;;;4911552;29;20052;-82
2022/06/18 11:30:25;;;;;;;4.68;1.20;;;;;;;;;;4912138;29;20056;-78
2022/06/18 11:32:54;;;;;;;1.77;0.82;;;;;;;;;;4908381;29;20044;-82
2022/06/18 11:35:25;;;;;;;4.25;0.95;;;;;;;;;;4913042;29;20052;-79
2022/06/18 11:37:59;;;;;;;4.50;0.88;;;;;;;;;;4894114;29;20496;-83
2022/06/18 11:40:25;;;;;;;6.78;1.20;;;;;;;;;;4911933;29;20052;-79
2022/06/18 11:43:10;;;;;;;4.55;1.30;;;;;;;;;;4912686;29;20032;-81
2022/06/18 11:45:37;;;;;;;3.78;1.25;;;;;;;;;;4908481;29;20082;-83
2022/06/18 11:48:14;;;;;;;4.85;1.10;;;;;;;;;;4913992;29;20063;-84
2022/06/18 11:50:53;;;;;;;2.42;1.10;;;;;;;;;;4911914;29;20048;-82
2022/06/18 11:53:24;;;;;;;2.67;1.00;;;;;;;;;;4920594;29;20059;-83
2022/06/18 11:55:54;;;;;;;5.43;1.90;;;;;;;;;;4913188;29;20036;-81
2022/06/18 11:58:33;;;;;;;3.47;1.20;;;;;;;;;;4901578;29;20074;-83
2022/06/18 12:01:04;;;;;;;4.25;1.20;;;;;;;;;;4915238;29;20120;-83
2022/06/18 12:03:30;;;;;;;4.50;1.52;;;;;;;;;;4916871;29;20043;-83
2022/06/18 12:06:05;;;;;;;5.35;1.60;;;;;;;;;;4921756;29;20036;-82
2022/06/18 12:08:32;;;;;;;6.47;1.90;;;;;;;;;;4920307;29;20051;-80
2022/06/18 12:11:01;;;;;;;5.50;1.50;;;;;;;;;;4914042;29;20044;-82
2022/06/18 12:13:44;;;;;;;4.00;1.23;;;;;;;;;;4913581;29;20166;-81
2022/06/18 12:16:34;;;;;;;8.35;1.67;;;;;;;;;;4910205;29;20087;-83
2022/06/18 12:19:10;;;;;;;6.57;1.60;;;;;;;;;;4911025;29;20060;-82
2022/06/18 12:21:42;;;;;;;4.80;1.55;;;;;;;;;;4911097;29;20111;-81
2022/06/18 12:24:21;;;;;;;5.72;1.48;;;;;;;;;;4911745;29;20083;-81
2022/06/18 12:26:53;;;;;;;5.55;1.65;;;;;;;;;;4904951;29;20122;-80
2022/06/18 12:29:22;;;;;;;6.18;1.60;;;;;;;;;;4908045;29;20095;-81
2022/06/18 12:31:51;;;;;;;7.32;1.63;;;;;;;;;;4892894;29;20037;-81
2022/06/18 12:34:23;;;;;;;10.05;2.08;;;;;;;;;;4911880;29;20139;-80
2022/06/18 12:36:49;;;;;;;5.50;1.70;;;;;;;;;;4895214;29;20180;-79
2022/06/18 12:39:15;;;;;;;6.72;1.70;;;;;;;;;;4911503;29;20110;-80
2022/06/18 12:42:05;;;;;;;8.05;1.55;;;;;;;;;;4911442;29;20591;-82
2022/06/18 12:44:34;;;;;;;9.02;1.50;;;;;;;;;;4894946;29;20420;-82
2022/06/18 12:47:00;;;;;;;6.15;1.40;;;;;;;;;;4911610;29;20401;-80
2022/06/18 12:49:38;;;;;;;6.78;1.33;;;;;;;;;;4913128;29;20044;-84
2022/06/18 12:52:32;;;;;;;5.20;1.30;;;;;;;;;;4908399;29;20525;-84
2022/06/18 12:54:58;;;;;;;;;;;;;;;;;;4911623;29;20421;-84
2022/06/18 12:57:44;;;;;;;6.35;1.48;;;;;;;;;;4912176;29;19959;-80
2022/06/18 13:00:12;;;;;;;6.32;1.38;;;;;;;;;;4910197;29;20126;-84
2022/06/18 13:02:45;;;;;;;4.22;1.38;;;;;;;;;;4914081;29;20062;-81
2022/06/18 13:05:26;;;;;;;6.35;1.25;;;;;;;;;;5119941;27;20410;-79
2022/06/18 13:07:55;;;;;;;11.07;1.52;;;;;;;;;;5117041;27;20047;-82
2022/06/18 13:10:42;;;;;;;5.68;1.20;;;;;;;;;;5113285;28;20043;-82
2022/06/18 13:13:20;;;;;;;2.38;1.00;;;;;;;;;;5113681;28;20055;-80
2022/06/18 13:16:04;;;;;;;4.57;1.48;;;25.30;99.90;;;;;;5100331;28;20539;-79
2022/06/18 13:18:36;;;;;;;9.00;1.98;;;;;;;;;;5112385;28;20050;-83
2022/06/18 13:21:04;;;;;;;4.50;1.13;;;;;;;;;;5114805;27;20036;-78
2022/06/18 13:29:14;;;;;;;3.28;1.13;;;;;;;;;;5113506;28;20048;-79
2022/06/18 13:31:59;;;;;;;2.92;1.17;;;;;;;;;;5105584;27;20411;-78
2022/06/18 13:34:44;;;;;;;6.60;1.50;;;;;;;;;;5107221;28;20040;-81
2022/06/18 13:37:22;;;;;;;6.50;1.63;;;;;;;;;;5089706;28;20147;-82
2022/06/18 13:40:14;;;;;;;5.43;1.50;;;;;;;;;;5106096;28;20043;-82
2022/06/18 13:42:52;;;;;;;8.57;1.65;;;;;;;;;;5110987;28;20423;-82
2022/06/18 13:45:54;;;;;;;8.48;2.13;;;;;;;;;;5087327;28;20403;-79
2022/06/18 13:48:26;;;;;;;8.57;2.25;;;;;;;;;;5038202;28;20129;-80
2022/06/18 13:50:54;;;;;;;7.28;2.00;;;;;;;;;;5128629;27;20055;-79
2022/06/18 13:53:33;;;;;;;3.83;1.40;;;;;;;;;;5096001;28;20470;-83
2022/06/18 13:56:03;;;;;;;6.28;1.77;;;;;;;;;;5126429;28;20059;-82
2022/06/18 13:58:32;;;;;;;7.30;1.98;;;;;;;;;;5103042;28;20506;-80
2022/06/18 14:01:09;;;;;;;9.38;2.00;;;;;;;;;;5089288;28;20047;-83
2022/06/18 14:03:38;;;;;;;9.85;2.10;;;;;;;;;;5095125;28;20131;-83
2022/06/18 14:06:06;;;;;;;10.10;2.10;;;;;;;;;;5087921;28;20059;-82
2022/06/18 14:08:34;;;;;;;6.15;1.65;;;;;;;;;;5109683;27;20050;-82
2022/06/18 14:11:05;;;;;;;12.55;2.00;;;;;;;;;;5106702;28;20078;-81
2022/06/18 14:13:45;;;;;;;8.55;2.00;;;25.10;99.90;;;;;;5106648;28;20053;-78
2022/06/18 14:16:11;;;;;;;8.55;2.17;;;;;;;;;;5079647;28;20267;-81
2022/06/18 14:18:37;;;;;;;6.63;1.55;;;;;;;;;;5099699;28;20071;-78
2022/06/18 14:21:08;;;;;;;10.88;2.00;;;;;;;;;;5089105;28;20534;-79
2022/06/18 14:23:37;;;;;;;7.38;2.20;;;;;;;;;;5100370;28;20132;-81
2022/06/18 14:26:04;;;;;;;7.60;1.90;;;;;;;;;;5076064;28;20032;-83
2022/06/18 14:28:35;;;;;;;11.02;2.42;;;;;;;;;;5100013;28;20040;-79
2022/06/18 14:31:01;;;;;;;7.85;1.77;;;;;;;;;;5076756;28;20093;-82
2022/06/18 14:33:31;;;;;;;8.15;2.17;;;;;;;;;;5102321;28;20044;-81
2022/06/18 14:36:01;;;;;;;11.10;2.05;;;;;;;;;;5089775;28;20111;-80
2022/06/18 14:38:27;;;;;;;7.93;1.92;;;;;;;;;;5083147;28;20388;-82
2022/06/18 14:43:49;;;;;;;5.03;1.50;;;;;;;;;;5091679;28;20051;-82
2022/06/18 14:46:16;;;;;;;4.70;1.40;;;;;;;;;;5094528;28;20036;-82
2022/06/18 14:48:45;;;;;;;7.97;1.65;;;;;;;;;;5096200;28;20082;-79
2022/06/18 14:51:14;;;;;;;5.75;1.70;;;;;;;;;;5094505;28;20055;-83
2022/06/18 14:53:54;;;;;;;7.85;1.77;;;;;;;;;;5092495;28;20054;-84
2022/06/18 14:56:46;;;;;;;8.65;1.67;;;;;;;;;;5103344;28;20044;-82
2022/06/18 14:59:22;;;;;;;3.17;1.30;;;;;;;;;;5095578;28;20043;-82
2022/06/18 15:01:57;;;;;;;7.85;1.95;;;;;;;;;;5104428;28;20092;-82
2022/06/18 15:04:26;;;;;;;7.72;1.65;;;;;;;;;;5120475;28;20116;-78
2022/06/18 15:07:08;;;;;;;6.68;2.13;;;;;;;;;;5120322;28;20047;-79
2022/06/18 15:09:38;;;;;;;8.32;1.85;;;;;;;;;;5118121;28;20040;-83
2022/06/18 15:12:07;;;;;;;8.32;2.10;;;;;;;;;;5107938;28;20047;-81